createdAt,value
2024-02-17T00:00:06.727Z,25.52
2024-02-17T00:02:34.075Z,22.80
2024-02-17T00:05:00.913Z,21.13
2024-02-17T00:07:27.608Z,23.92
2024-02-17T00:09:54.315Z,24.73
2024-02-17T00:12:21.059Z,21.45
2024-02-17T00:14:47.855Z,24.42
2024-02-17T00:17:15.317Z,21.02
2024-02-17T00:19:42.432Z,20.17
2024-02-17T00:22:09.471Z,20.73
2024-02-17T00:24:36.194Z,26.33
2024-02-17T00:27:03.708Z,21.45
2024-02-17T00:29:30.566Z,23.38
2024-02-17T00:31:57.442Z,22.80
2024-02-17T00:34:24.978Z,23.33
2024-02-17T00:36:52.351Z,28.85
2024-02-17T00:39:19.277Z,26.58
2024-02-17T00:41:47.012Z,27.50
2024-02-17T00:44:14.208Z,27.27
2024-02-17T00:46:41.348Z,23.83
2024-02-17T00:49:10.551Z,21.67
2024-02-17T00:51:37.637Z,24.30
2024-02-17T00:54:04.443Z,24.33
2024-02-17T00:56:31.101Z,22.58
2024-02-17T00:58:57.647Z,25.58
2024-02-17T01:01:32.875Z,24.50
2024-02-17T01:04:05.604Z,22.08
2024-02-17T01:06:32.491Z,25.55
2024-02-17T01:08:59.199Z,23.25
2024-02-17T01:11:25.906Z,23.05
2024-02-17T01:13:52.646Z,23.35
2024-02-17T01:16:19.731Z,22.58
2024-02-17T01:18:46.509Z,23.10
2024-02-17T01:21:13.823Z,21.27
2024-02-17T01:23:41.103Z,24.05
2024-02-17T01:26:08.169Z,22.40
2024-02-17T01:28:34.922Z,28.33
2024-02-17T01:31:01.543Z,26.85
2024-02-17T01:33:28.254Z,25.60
2024-02-17T01:35:55.327Z,22.88
2024-02-17T01:38:22.237Z,25.80
2024-02-17T01:40:48.867Z,27.60
2024-02-17T01:43:15.946Z,26.27
2024-02-17T01:45:42.549Z,25.63
2024-02-17T01:48:10.146Z,25.73
2024-02-17T01:50:37.082Z,23.92
2024-02-17T01:53:04.016Z,22.98
2024-02-17T01:55:31.460Z,21.40
2024-02-17T01:57:59.263Z,24.48
2024-02-17T02:00:26.195Z,22.30
2024-02-17T02:02:55.011Z,23.17
2024-02-17T02:05:22.571Z,23.27
2024-02-17T02:07:49.336Z,23.95
2024-02-17T02:10:16.285Z,25.50
2024-02-17T02:12:42.990Z,24.73
2024-02-17T02:15:12.268Z,27.13
2024-02-17T02:17:40.337Z,23.63
2024-02-17T02:20:07.657Z,26.45
2024-02-17T02:22:34.756Z,23.10
2024-02-17T02:25:02.150Z,27.17
2024-02-17T02:27:28.992Z,22.85
2024-02-17T02:29:57.283Z,26.17
2024-02-17T02:32:27.605Z,27.33
2024-02-17T02:34:55.636Z,25.73
2024-02-17T02:37:28.392Z,23.13
2024-02-17T02:39:55.071Z,22.58
2024-02-17T02:42:21.703Z,25.65
2024-02-17T02:44:48.356Z,27.63
2024-02-17T02:47:18.080Z,25.88
2024-02-17T02:49:46.298Z,29.08
2024-02-17T02:52:14.541Z,23.25
2024-02-17T02:54:41.299Z,26.65
2024-02-17T02:57:07.947Z,23.60
2024-02-17T02:59:34.679Z,29.67
2024-02-17T03:02:04.858Z,25.58
2024-02-17T03:04:31.732Z,29.67
2024-02-17T03:06:58.712Z,27.08
2024-02-17T03:09:25.406Z,26.58
2024-02-17T03:11:52.034Z,22.42
2024-02-17T03:14:18.933Z,26.17
2024-02-17T03:16:45.816Z,26.70
2024-02-17T03:19:12.612Z,27.55
2024-02-17T03:21:41.631Z,28.50
2024-02-17T03:24:09.167Z,26.38
2024-02-17T03:26:37.613Z,27.25
2024-02-17T03:29:04.758Z,27.15
2024-02-17T03:31:31.390Z,26.83
2024-02-17T03:34:00.690Z,27.30
2024-02-17T03:36:28.027Z,21.77
2024-02-17T03:38:54.919Z,25.63
2024-02-17T03:41:21.534Z,24.20
2024-02-17T03:43:48.286Z,25.27
2024-02-17T03:46:14.868Z,29.88
2024-02-17T03:48:41.794Z,23.45
2024-02-17T03:51:09.025Z,25.42
2024-02-17T03:53:36.838Z,26.42
2024-02-17T03:56:04.837Z,23.92
2024-02-17T03:58:31.434Z,24.75
2024-02-17T04:00:58.141Z,28.08
2024-02-17T04:03:25.094Z,27.15
2024-02-17T04:05:51.942Z,24.88
2024-02-17T04:08:18.744Z,25.63
2024-02-17T04:10:45.992Z,27.35
2024-02-17T04:13:12.856Z,21.38
2024-02-17T04:15:40.569Z,28.10
2024-02-17T04:18:11.263Z,27.42
2024-02-17T04:20:39.138Z,22.33
2024-02-17T04:23:07.047Z,25.98
2024-02-17T04:25:34.214Z,26.67
2024-02-17T04:28:03.417Z,26.60
2024-02-17T04:30:30.134Z,26.00
2024-02-17T04:32:56.915Z,26.65
2024-02-17T04:35:23.872Z,24.10
2024-02-17T04:37:50.640Z,23.13
2024-02-17T04:40:17.326Z,22.15
2024-02-17T04:42:45.545Z,23.90
2024-02-17T04:45:12.219Z,21.63
2024-02-17T04:47:39.637Z,23.83
2024-02-17T04:50:06.508Z,28.08
2024-02-17T04:52:33.200Z,21.85
2024-02-17T04:54:59.855Z,21.52
2024-02-17T04:57:26.549Z,22.38
2024-02-17T04:59:53.304Z,21.40
2024-02-17T05:02:19.933Z,21.45
2024-02-17T05:04:46.626Z,19.35
2024-02-17T05:07:13.315Z,22.88
2024-02-17T05:09:40.093Z,23.35
2024-02-17T05:12:06.909Z,19.90
2024-02-17T05:14:37.590Z,22.48
2024-02-17T05:17:05.228Z,22.30
2024-02-17T05:19:32.349Z,24.52
2024-02-17T05:21:59.951Z,25.02
2024-02-17T05:24:26.826Z,27.25
2024-02-17T05:26:53.878Z,20.65
2024-02-17T05:29:20.432Z,22.23
2024-02-17T05:31:47.056Z,22.95
2024-02-17T05:34:13.978Z,18.80
2024-02-17T05:36:41.128Z,22.27
2024-02-17T05:39:08.985Z,23.10
2024-02-17T05:41:36.000Z,18.65
2024-02-17T05:44:02.837Z,19.02
2024-02-17T05:46:29.435Z,24.33
2024-02-17T05:48:56.201Z,25.50
2024-02-17T05:51:22.885Z,21.05
2024-02-17T05:53:49.637Z,21.60
2024-02-17T05:56:16.327Z,23.35
2024-02-17T05:58:43.918Z,19.02
2024-02-17T06:01:11.249Z,25.63
2024-02-17T06:03:38.058Z,20.92
2024-02-17T06:06:05.353Z,22.40
2024-02-17T06:08:34.463Z,22.50
2024-02-17T06:11:01.635Z,21.95
2024-02-17T06:13:30.042Z,26.13
2024-02-17T06:15:57.144Z,20.70
2024-02-17T06:18:42.486Z,19.35
2024-02-17T06:21:12.385Z,23.60
2024-02-17T06:23:39.177Z,22.88
2024-02-17T06:26:06.569Z,19.45
2024-02-17T06:28:33.519Z,22.13
2024-02-17T06:31:00.398Z,21.30
2024-02-17T06:33:32.438Z,21.50
2024-02-17T06:35:59.285Z,23.58
2024-02-17T06:38:25.908Z,28.27
2024-02-17T06:40:52.882Z,21.02
2024-02-17T06:43:19.448Z,24.20
2024-02-17T06:45:46.442Z,19.25
2024-02-17T06:48:13.345Z,20.48
2024-02-17T06:50:40.227Z,20.92
2024-02-17T06:53:06.983Z,22.58
2024-02-17T06:55:34.064Z,22.60
2024-02-17T06:58:00.662Z,26.92
2024-02-17T07:00:27.340Z,20.63
2024-02-17T07:02:54.000Z,23.98
2024-02-17T07:05:20.590Z,24.10
2024-02-17T07:07:47.404Z,18.45
2024-02-17T07:10:14.040Z,22.45
2024-02-17T07:12:41.190Z,26.25
2024-02-17T07:15:08.574Z,25.40
2024-02-17T07:17:35.344Z,23.42
2024-02-17T07:20:02.319Z,18.98
2024-02-17T07:22:29.809Z,23.70
2024-02-17T07:24:56.405Z,20.40
2024-02-17T07:27:24.188Z,26.45
2024-02-17T07:29:51.174Z,24.60
2024-02-17T07:32:20.076Z,20.17
2024-02-17T07:34:47.278Z,25.38
2024-02-17T07:37:14.097Z,21.23
2024-02-17T07:39:41.915Z,23.15
2024-02-17T07:42:10.043Z,25.88
2024-02-17T07:44:37.354Z,24.02
2024-02-17T07:47:04.911Z,24.70
2024-02-17T07:49:33.487Z,23.45
2024-02-17T07:52:00.669Z,19.88
2024-02-17T07:54:27.420Z,22.50
2024-02-17T07:56:54.106Z,24.45
2024-02-17T07:59:20.767Z,21.98
2024-02-17T08:01:47.543Z,25.65
2024-02-17T08:04:14.961Z,21.40
2024-02-17T08:06:41.916Z,23.27
2024-02-17T08:09:09.027Z,20.48
2024-02-17T08:11:36.651Z,25.85
2024-02-17T08:14:05.780Z,21.73
2024-02-17T08:16:33.267Z,23.10
2024-02-17T08:19:00.206Z,22.70
2024-02-17T08:21:27.035Z,21.95
2024-02-17T08:23:53.756Z,23.13
2024-02-17T08:26:21.248Z,22.58
2024-02-17T08:28:47.890Z,23.23
2024-02-17T08:31:14.837Z,22.58
2024-02-17T08:33:41.625Z,16.83
2024-02-17T08:36:08.914Z,23.38
2024-02-17T08:38:35.599Z,19.15
2024-02-17T08:41:05.073Z,22.83
2024-02-17T08:43:31.662Z,23.70
2024-02-17T08:45:58.550Z,21.92
2024-02-17T08:48:25.665Z,19.90
2024-02-17T08:50:52.830Z,19.83
2024-02-17T08:53:20.051Z,22.40
2024-02-17T08:55:46.690Z,22.33
2024-02-17T08:58:13.784Z,24.50
2024-02-17T09:00:40.597Z,17.77
2024-02-17T09:03:07.722Z,19.10
2024-02-17T09:05:38.002Z,23.83
2024-02-17T09:08:04.947Z,20.58
2024-02-17T09:10:31.542Z,19.75
2024-02-17T09:12:58.242Z,21.58
2024-02-17T09:15:25.002Z,25.25
2024-02-17T09:17:51.739Z,24.48
2024-02-17T09:20:18.503Z,23.05
2024-02-17T09:22:45.718Z,24.70
2024-02-17T09:25:12.324Z,18.70
2024-02-17T09:27:39.099Z,21.73
2024-02-17T09:30:07.215Z,21.80
2024-02-17T09:32:33.839Z,20.70
2024-02-17T09:35:00.702Z,23.08
2024-02-17T09:37:27.499Z,22.60
2024-02-17T09:39:54.147Z,20.13
2024-02-17T09:42:21.122Z,20.63
2024-02-17T09:44:49.176Z,21.05
2024-02-17T09:47:17.074Z,22.10
2024-02-17T09:49:45.652Z,21.00
2024-02-17T09:52:12.825Z,23.67
2024-02-17T09:54:40.406Z,22.17
2024-02-17T09:57:07.801Z,21.13
2024-02-17T09:59:34.473Z,20.52
2024-02-17T10:02:03.763Z,21.02
2024-02-17T10:04:31.384Z,23.10
2024-02-17T10:07:02.329Z,22.20
2024-02-17T10:09:31.095Z,20.92
2024-02-17T10:11:59.865Z,19.10
2024-02-17T10:14:28.563Z,18.15
2024-02-17T10:17:00.051Z,19.95
2024-02-17T10:19:27.111Z,21.35
2024-02-17T10:21:55.252Z,18.90
2024-02-17T10:24:22.943Z,21.65
2024-02-17T10:26:56.145Z,20.75
2024-02-17T10:29:25.045Z,20.80
2024-02-17T10:31:52.227Z,17.85
2024-02-17T10:34:19.315Z,22.98
2024-02-17T10:36:46.567Z,22.75
2024-02-17T10:39:13.214Z,18.10
2024-02-17T10:41:40.376Z,18.50
2024-02-17T10:44:07.146Z,20.88
2024-02-17T10:46:36.099Z,17.13
2024-02-17T10:49:17.239Z,17.08
2024-02-17T10:51:57.145Z,17.58
2024-02-17T10:54:33.341Z,16.80
2024-02-17T10:57:04.965Z,20.33
2024-02-17T10:59:33.700Z,20.38
2024-02-17T11:02:00.720Z,21.23
2024-02-17T11:04:28.106Z,17.38
2024-02-17T11:06:57.085Z,17.33
2024-02-17T11:09:24.632Z,16.38
2024-02-17T11:11:51.466Z,15.98
2024-02-17T11:14:42.504Z,17.90
2024-02-17T11:17:12.981Z,15.70
2024-02-17T11:19:43.642Z,23.10
2024-02-17T11:22:11.203Z,20.33
2024-02-17T11:24:39.152Z,16.05
2024-02-17T11:27:06.348Z,16.58
2024-02-17T11:29:35.487Z,20.17
2024-02-17T11:32:03.714Z,21.75
2024-02-17T11:34:30.539Z,19.45
2024-02-17T11:37:00.427Z,18.15
2024-02-17T11:39:27.512Z,14.38
2024-02-17T11:41:54.462Z,18.80
2024-02-17T11:44:22.132Z,15.98
2024-02-17T11:46:49.165Z,13.85
2024-02-17T11:49:44.649Z,17.85
2024-02-17T11:52:11.538Z,18.92
2024-02-17T11:54:38.989Z,20.85
2024-02-17T11:57:07.869Z,15.73
2024-02-17T11:59:36.948Z,17.15
2024-02-17T12:02:04.533Z,16.25
2024-02-17T12:04:32.574Z,16.95
2024-02-17T12:06:59.394Z,17.17
2024-02-17T12:09:26.065Z,21.58
2024-02-17T12:11:54.892Z,17.27
2024-02-17T12:14:24.621Z,17.83
2024-02-17T12:16:51.458Z,16.98
2024-02-17T12:19:18.262Z,17.13
2024-02-17T12:21:46.703Z,19.10
2024-02-17T12:24:14.082Z,19.98
2024-02-17T12:26:47.242Z,15.75
2024-02-17T12:29:15.318Z,16.90
2024-02-17T12:31:47.442Z,17.98
2024-02-17T12:34:31.735Z,15.40
2024-02-17T12:37:00.457Z,17.48
2024-02-17T12:39:27.490Z,16.98
2024-02-17T12:42:04.671Z,16.38
2024-02-17T12:44:32.145Z,19.23
2024-02-17T12:46:58.934Z,16.27
2024-02-17T12:49:26.303Z,19.90
2024-02-17T12:51:53.613Z,15.93
2024-02-17T12:54:20.607Z,16.83
2024-02-17T12:56:47.750Z,17.30
2024-02-17T12:59:15.065Z,17.75
2024-02-17T13:01:41.801Z,15.50
2024-02-17T13:04:08.551Z,19.25
2024-02-17T13:06:35.903Z,18.30
2024-02-17T13:09:02.864Z,16.73
2024-02-17T13:11:29.941Z,21.40
2024-02-17T13:13:57.720Z,19.70
2024-02-17T13:16:24.516Z,20.58
2024-02-17T13:18:51.299Z,18.73
2024-02-17T13:21:19.412Z,18.42
2024-02-17T13:23:46.250Z,20.15
2024-02-17T13:26:14.829Z,18.52
2024-02-17T13:28:43.009Z,17.38
2024-02-17T13:31:12.120Z,16.08
2024-02-17T13:33:39.383Z,17.10
2024-02-17T13:36:06.180Z,16.92
2024-02-17T13:38:32.795Z,20.00
2024-02-17T13:40:59.505Z,18.63
2024-02-17T13:43:26.088Z,16.08
2024-02-17T13:45:53.076Z,19.23
2024-02-17T13:48:20.153Z,18.35
2024-02-17T13:50:48.499Z,18.25
2024-02-17T13:53:15.620Z,16.60
2024-02-17T13:55:44.236Z,19.23
2024-02-17T13:58:11.562Z,19.70
2024-02-17T14:00:40.991Z,19.75
2024-02-17T14:03:08.635Z,18.38
2024-02-17T14:05:35.611Z,20.13
2024-02-17T14:08:02.186Z,17.60
2024-02-17T14:10:28.921Z,18.80
2024-02-17T14:13:00.059Z,17.73
2024-02-17T14:15:28.117Z,17.75
2024-02-17T14:17:54.963Z,19.85
2024-02-17T14:20:21.775Z,21.08
2024-02-17T14:22:51.476Z,18.25
2024-02-17T14:25:18.304Z,19.88
2024-02-17T14:27:46.213Z,18.88
2024-02-17T14:30:13.320Z,17.90
2024-02-17T14:32:40.810Z,18.73
2024-02-17T14:35:07.844Z,16.55
2024-02-17T14:37:34.596Z,15.57
2024-02-17T14:40:01.256Z,19.33
2024-02-17T14:42:28.501Z,16.40
2024-02-17T14:44:55.412Z,15.13
2024-02-17T14:47:22.012Z,18.27
2024-02-17T14:49:49.114Z,15.43
2024-02-17T14:52:17.124Z,15.73
2024-02-17T14:54:45.974Z,15.88
2024-02-17T14:57:14.159Z,18.30
2024-02-17T14:59:44.853Z,16.60
2024-02-17T15:02:11.535Z,17.75
2024-02-17T15:04:38.208Z,15.68
2024-02-17T15:07:05.138Z,16.67
2024-02-17T15:09:32.464Z,14.98
2024-02-17T15:12:00.132Z,18.17
2024-02-17T15:14:29.067Z,15.95
2024-02-17T15:16:56.115Z,14.48
2024-02-17T15:19:22.897Z,13.77
2024-02-17T15:21:49.649Z,16.67
2024-02-17T15:24:16.385Z,14.65
2024-02-17T15:26:46.039Z,14.65
2024-02-17T15:29:12.707Z,13.27
2024-02-17T15:31:40.854Z,12.75
2024-02-17T15:34:08.831Z,15.52
2024-02-17T15:36:37.902Z,10.90
2024-02-17T15:39:07.533Z,12.23
2024-02-17T15:41:35.285Z,14.52
2024-02-17T15:44:01.946Z,14.15
2024-02-17T15:46:28.739Z,10.85
2024-02-17T15:48:56.081Z,14.10
2024-02-17T15:51:22.859Z,12.88
2024-02-17T15:53:52.996Z,14.60
2024-02-17T15:56:19.576Z,13.90
2024-02-17T15:58:49.300Z,11.57
2024-02-17T16:01:18.003Z,15.07
2024-02-17T16:03:45.692Z,12.52
2024-02-17T16:06:12.761Z,12.70
2024-02-17T16:08:42.251Z,14.38
2024-02-17T16:11:15.104Z,10.38
2024-02-17T16:13:45.788Z,14.20
2024-02-17T16:16:15.950Z,14.98
2024-02-17T16:18:46.778Z,13.93
2024-02-17T16:21:13.763Z,12.55
2024-02-17T16:23:40.941Z,19.80
2024-02-17T16:26:07.558Z,15.55
2024-02-17T16:28:34.305Z,14.60
2024-02-17T16:31:01.043Z,16.33
2024-02-17T16:33:27.885Z,15.32
2024-02-17T16:35:54.665Z,15.80
2024-02-17T16:38:21.494Z,16.88
2024-02-17T16:40:49.804Z,12.80
2024-02-17T16:43:17.667Z,13.18
2024-02-17T16:45:47.293Z,17.33
2024-02-17T16:48:14.558Z,14.43
2024-02-17T16:50:41.301Z,16.80
2024-02-17T16:53:07.968Z,18.95
2024-02-17T16:55:34.792Z,17.33
2024-02-17T16:58:01.669Z,14.63
2024-02-17T17:00:28.400Z,15.02
2024-02-17T17:02:55.326Z,17.30
2024-02-17T17:05:22.071Z,15.05
2024-02-17T17:07:48.857Z,16.65
2024-02-17T17:10:15.491Z,12.52
2024-02-17T17:12:42.372Z,12.43
2024-02-17T17:15:10.312Z,15.52
2024-02-17T17:17:37.727Z,14.90
2024-02-17T17:20:05.404Z,15.73
2024-02-17T17:22:42.710Z,16.48
2024-02-17T17:25:14.543Z,14.48
2024-02-17T17:27:41.557Z,15.18
2024-02-17T17:30:12.122Z,16.50
2024-02-17T17:32:41.115Z,16.00
2024-02-17T17:35:08.920Z,20.25
2024-02-17T17:37:36.318Z,16.30
2024-02-17T17:40:03.677Z,18.58
2024-02-17T17:42:30.858Z,22.80
2024-02-17T17:44:57.675Z,17.55
2024-02-17T17:47:24.392Z,20.50
2024-02-17T17:49:51.259Z,17.52
2024-02-17T17:52:18.190Z,18.88
2024-02-17T17:54:49.755Z,20.50
2024-02-17T17:57:17.545Z,20.45
2024-02-17T17:59:45.204Z,22.60
2024-02-17T18:02:11.766Z,21.15
2024-02-17T18:04:38.712Z,21.83
2024-02-17T18:07:05.737Z,36.03
2024-02-17T18:09:32.492Z,39.70
2024-02-17T18:11:59.185Z,60.35
2024-02-17T18:14:25.827Z,43.47
2024-02-17T18:16:52.501Z,43.38
2024-02-17T18:19:20.133Z,46.72
2024-02-17T18:21:47.623Z,40.30
2024-02-17T18:24:14.333Z,36.10
2024-02-17T18:26:41.236Z,33.00
2024-02-17T18:29:07.911Z,29.38
2024-02-17T18:31:37.450Z,31.70
2024-02-17T18:34:05.098Z,26.65
2024-02-17T18:36:33.110Z,26.25
2024-02-17T18:39:00.060Z,22.27
2024-02-17T18:41:26.637Z,25.20
2024-02-17T18:43:53.261Z,25.23
2024-02-17T18:46:20.134Z,25.15
2024-02-17T18:48:46.800Z,24.95
2024-02-17T18:51:19.678Z,26.20
2024-02-17T18:53:46.704Z,22.88
2024-02-17T18:56:13.699Z,24.70
2024-02-17T18:58:47.934Z,26.88
2024-02-17T19:01:15.142Z,24.25
2024-02-17T19:03:49.182Z,27.70
2024-02-17T19:06:17.176Z,29.60
2024-02-17T19:08:46.709Z,32.40
2024-02-17T19:11:13.762Z,33.78
2024-02-17T19:13:40.994Z,31.63
2024-02-17T19:16:08.930Z,28.92
2024-02-17T19:18:36.527Z,33.53
2024-02-17T19:21:03.940Z,31.00
2024-02-17T19:23:30.594Z,29.02
2024-02-17T19:25:57.315Z,29.58
2024-02-17T19:28:23.916Z,31.13
2024-02-17T19:30:50.958Z,27.70
2024-02-17T19:33:19.288Z,32.95
2024-02-17T19:35:46.165Z,27.23
2024-02-17T19:38:12.841Z,29.35
2024-02-17T19:40:39.969Z,23.05
2024-02-17T19:43:06.680Z,23.42
2024-02-17T19:45:33.530Z,24.65
2024-02-17T19:48:00.428Z,25.40
2024-02-17T19:50:27.080Z,23.55
2024-02-17T19:52:53.862Z,28.50
2024-02-17T19:55:20.604Z,34.03
2024-02-17T19:57:52.772Z,25.10
2024-02-17T20:00:20.645Z,28.55
2024-02-17T20:02:48.069Z,37.95
2024-02-17T20:05:19.230Z,29.23
2024-02-17T20:07:46.038Z,25.77
2024-02-17T20:10:12.552Z,25.98
2024-02-17T20:12:40.034Z,20.90
2024-02-17T20:15:10.008Z,19.73
2024-02-17T20:17:44.883Z,21.40
2024-02-17T20:20:13.020Z,18.42
2024-02-17T20:22:40.226Z,19.98
2024-02-17T20:25:07.193Z,17.17
2024-02-17T20:27:33.956Z,19.50
2024-02-17T20:30:00.632Z,20.67
2024-02-17T20:32:27.333Z,26.42
2024-02-17T20:34:54.048Z,23.67
2024-02-17T20:37:20.704Z,27.95
2024-02-17T20:39:47.387Z,21.70
2024-02-17T20:42:14.033Z,18.42
2024-02-17T20:44:41.751Z,16.88
2024-02-17T20:47:08.768Z,16.92
2024-02-17T20:49:36.673Z,23.60
2024-02-17T20:52:03.519Z,19.77
2024-02-17T20:54:30.701Z,15.50
2024-02-17T20:56:57.429Z,19.20
2024-02-17T20:59:24.127Z,17.60
2024-02-17T21:01:50.914Z,19.42
2024-02-17T21:04:18.121Z,13.35
2024-02-17T21:06:45.126Z,15.10
2024-02-17T21:09:11.731Z,13.55
2024-02-17T21:11:38.447Z,22.02
2024-02-17T21:14:07.412Z,17.35
2024-02-17T21:16:34.079Z,17.55
2024-02-17T21:19:00.928Z,17.55
2024-02-17T21:21:28.732Z,14.77
2024-02-17T21:23:56.170Z,20.38
2024-02-17T21:26:22.832Z,31.10
2024-02-17T21:28:49.498Z,17.17
2024-02-17T21:31:16.323Z,26.25
2024-02-17T21:33:44.179Z,20.27
2024-02-17T21:36:13.976Z,20.45
2024-02-17T21:38:41.296Z,20.73
2024-02-17T21:41:07.951Z,19.92
2024-02-17T21:43:35.723Z,23.20
2024-02-17T21:46:02.768Z,18.52
2024-02-17T21:48:30.091Z,15.98
2024-02-17T21:50:56.805Z,16.65
2024-02-17T21:53:23.558Z,14.40
2024-02-17T21:55:50.176Z,12.45
2024-02-17T21:58:17.306Z,17.08
2024-02-17T22:00:45.099Z,15.05
2024-02-17T22:03:11.946Z,14.55
2024-02-17T22:05:38.711Z,17.08
2024-02-17T22:08:06.751Z,20.38
2024-02-17T22:10:33.321Z,14.05
2024-02-17T22:12:59.934Z,16.70
2024-02-17T22:15:27.406Z,15.45
2024-02-17T22:17:54.149Z,15.77
2024-02-17T22:20:20.993Z,12.45
2024-02-17T22:22:47.663Z,12.15
2024-02-17T22:25:14.291Z,14.18
2024-02-17T22:27:42.464Z,10.15
2024-02-17T22:30:09.894Z,14.07
2024-02-17T22:32:37.717Z,13.68
2024-02-17T22:35:05.042Z,12.52
2024-02-17T22:37:32.337Z,13.98
2024-02-17T22:39:59.017Z,13.90
2024-02-17T22:42:25.681Z,10.05
2024-02-17T22:44:52.253Z,11.85
2024-02-17T22:47:19.008Z,11.70
2024-02-17T22:49:46.098Z,14.02
2024-02-17T22:52:12.821Z,14.02
2024-02-17T22:54:40.460Z,13.30
2024-02-17T22:57:07.839Z,15.82
2024-02-17T22:59:34.536Z,16.50
2024-02-17T23:02:01.223Z,11.73
2024-02-17T23:04:27.986Z,12.23
2024-02-17T23:06:54.635Z,13.00
2024-02-17T23:09:21.307Z,12.15
2024-02-17T23:11:47.999Z,13.23
2024-02-17T23:14:14.958Z,12.10
2024-02-17T23:16:44.968Z,11.88
2024-02-17T23:19:13.194Z,11.45
2024-02-17T23:21:45.736Z,15.75
2024-02-17T23:24:13.902Z,10.90
2024-02-17T23:26:41.397Z,12.65
2024-02-17T23:29:09.577Z,11.43
2024-02-17T23:31:36.676Z,9.73
2024-02-17T23:34:03.609Z,9.82
2024-02-17T23:36:30.477Z,11.40
2024-02-17T23:38:57.342Z,9.63
2024-02-17T23:41:23.965Z,12.30
2024-02-17T23:43:50.624Z,12.38
2024-02-17T23:46:17.346Z,10.70
2024-02-17T23:48:44.168Z,14.23
2024-02-17T23:51:11.648Z,8.07
2024-02-17T23:53:39.393Z,15.13
2024-02-17T23:56:06.854Z,10.60
2024-02-17T23:58:33.757Z,9.23
